createdAt,value
2018-02-06T00:02:24.526Z,9.37
2018-02-06T00:04:52.426Z,10.43
2018-02-06T00:07:19.955Z,10.53
2018-02-06T00:09:48.231Z,9.73
2018-02-06T00:12:15.762Z,10.73
2018-02-06T00:14:43.276Z,11.60
2018-02-06T00:17:10.811Z,10.03
2018-02-06T00:19:39.082Z,10.50
2018-02-06T00:22:06.615Z,12.40
2018-02-06T00:24:34.611Z,10.80
2018-02-06T00:27:02.163Z,11.57
2018-02-06T00:29:29.670Z,10.90
2018-02-06T00:31:57.797Z,12.87
2018-02-06T00:34:25.298Z,11.23
2018-02-06T00:36:53.227Z,12.93
2018-02-06T00:39:21.504Z,12.40
2018-02-06T00:41:49.415Z,10.37
2018-02-06T00:44:16.926Z,12.67
2018-02-06T00:46:45.413Z,10.33
2018-02-06T00:49:12.914Z,11.87
2018-02-06T00:51:41.562Z,13.47
2018-02-06T00:54:09.491Z,12.33
2018-02-06T00:56:37.778Z,10.23
2018-02-06T00:59:05.718Z,13.20
2018-02-06T01:01:33.610Z,11.60
2018-02-06T01:04:01.532Z,10.80
2018-02-06T01:06:29.442Z,11.83
2018-02-06T01:08:57.386Z,11.23
2018-02-06T01:11:25.292Z,10.43
2018-02-06T01:13:53.218Z,11.17
2018-02-06T01:16:21.118Z,11.53
2018-02-06T01:18:49.989Z,12.27
2018-02-06T01:21:17.898Z,13.00
2018-02-06T01:23:45.435Z,13.97
2018-02-06T01:26:12.953Z,11.43
2018-02-06T01:28:42.146Z,11.53
2018-02-06T01:31:09.654Z,10.07
2018-02-06T01:33:37.581Z,13.83
2018-02-06T01:36:05.095Z,11.83
2018-02-06T01:38:32.636Z,11.87
2018-02-06T01:41:00.558Z,10.33
2018-02-06T01:43:28.470Z,10.33
2018-02-06T01:45:55.981Z,12.00
2018-02-06T01:48:23.553Z,11.03
2018-02-06T01:50:51.459Z,12.10
2018-02-06T01:53:18.969Z,11.30
2018-02-06T01:55:46.890Z,10.97
2018-02-06T01:58:14.453Z,11.60
2018-02-06T02:00:41.975Z,14.20
2018-02-06T02:03:09.877Z,14.27
2018-02-06T02:05:37.841Z,11.87
2018-02-06T02:08:05.350Z,14.67
2018-02-06T02:10:34.035Z,11.83
2018-02-06T02:13:01.939Z,10.90
2018-02-06T02:15:29.474Z,14.63
2018-02-06T02:17:57.374Z,11.80
2018-02-06T02:20:25.297Z,13.70
2018-02-06T02:22:52.807Z,11.43
2018-02-06T02:25:20.727Z,12.23
2018-02-06T02:27:48.430Z,10.97
2018-02-06T02:30:16.355Z,11.57
2018-02-06T02:32:44.342Z,11.50
2018-02-06T02:35:11.867Z,10.70
2018-02-06T02:37:39.766Z,14.97
2018-02-06T02:40:07.691Z,11.80
2018-02-06T04:40:48.858Z,12.57
2018-02-06T04:43:16.362Z,15.47
2018-02-06T04:45:43.874Z,12.13
2018-02-06T04:48:12.254Z,15.70
2018-02-06T04:50:39.750Z,12.07
2018-02-06T04:53:07.274Z,12.20
2018-02-06T04:55:35.187Z,13.53
2018-02-06T04:58:02.706Z,11.63
2018-02-06T05:00:30.614Z,12.60
2018-02-06T05:02:58.150Z,16.07
2018-02-06T05:05:25.659Z,12.77
2018-02-06T05:07:53.185Z,12.23
2018-02-06T05:10:21.083Z,12.97
2018-02-06T05:12:48.606Z,17.13
2018-02-06T05:15:16.609Z,12.70
2018-02-06T05:17:44.534Z,13.87
2018-02-06T05:20:12.039Z,13.70
2018-02-06T05:22:39.574Z,13.00
2018-02-06T05:25:07.082Z,14.30
2018-02-06T05:27:34.635Z,15.30
2018-02-06T05:30:02.142Z,12.30
2018-02-06T05:32:29.666Z,14.33
2018-02-06T05:34:57.178Z,14.13
2018-02-06T05:37:24.728Z,12.70
2018-02-06T05:39:52.641Z,16.33
2018-02-06T05:42:20.918Z,14.20
2018-02-06T05:44:49.228Z,13.83
2018-02-06T05:47:16.759Z,17.27
2018-02-06T05:49:44.396Z,15.10
2018-02-06T05:52:11.906Z,15.97
2018-02-06T05:54:40.328Z,13.90
2018-02-06T05:57:08.230Z,17.20
2018-02-06T05:59:35.758Z,12.67
2018-02-06T06:02:03.270Z,14.23
2018-02-06T06:04:32.411Z,15.33
2018-02-06T06:07:00.877Z,15.37
2018-02-06T06:09:28.520Z,17.10
2018-02-06T06:11:56.067Z,13.73
2018-02-06T06:14:23.982Z,14.33
2018-02-06T06:16:51.494Z,15.83
2018-02-06T06:19:19.026Z,16.27
2018-02-06T06:21:47.298Z,17.37
2018-02-06T06:24:15.214Z,12.27
2018-02-06T06:26:43.860Z,15.03
2018-02-06T06:29:12.534Z,16.27
2018-02-06T06:31:40.226Z,15.07
2018-02-06T06:34:07.731Z,19.53
2018-02-06T06:36:35.346Z,14.20
2018-02-06T06:39:03.255Z,15.03
2018-02-06T06:41:31.184Z,15.20
2018-02-06T06:43:59.100Z,17.07
2018-02-06T06:46:27.021Z,14.63
2018-02-06T06:48:54.520Z,15.10
2018-02-06T06:51:22.447Z,18.50
2018-02-06T06:53:49.968Z,13.60
2018-02-06T06:56:17.921Z,15.63
2018-02-06T06:58:45.438Z,15.43
2018-02-06T07:01:12.962Z,17.60
2018-02-06T07:03:40.470Z,14.53
2018-02-06T07:06:08.009Z,16.87
2018-02-06T07:08:35.520Z,13.93
2018-02-06T07:11:03.099Z,19.63
2018-02-06T07:13:30.603Z,12.83
2018-02-06T07:15:58.534Z,15.23
2018-02-06T07:18:26.047Z,13.53
2018-02-06T07:20:53.951Z,14.30
2018-02-06T07:23:21.481Z,14.20
2018-02-06T07:25:50.130Z,15.87
2018-02-06T07:28:17.651Z,14.10
2018-02-06T07:30:45.174Z,13.40
2018-02-06T07:33:12.704Z,15.70
2018-02-06T07:35:40.617Z,13.37
2018-02-06T07:38:08.146Z,16.30
2018-02-06T07:40:35.662Z,11.87
2018-02-06T07:43:04.318Z,13.23
2018-02-06T07:45:31.825Z,11.50
2018-02-06T07:47:59.354Z,14.33
2018-02-06T07:50:27.258Z,12.50
2018-02-06T07:52:54.914Z,12.83
2018-02-06T07:55:22.422Z,14.20
2018-02-06T07:57:50.386Z,11.67
2018-02-06T08:00:19.405Z,11.97
2018-02-06T08:02:47.319Z,13.73
2018-02-06T08:05:15.218Z,13.80
2018-02-06T08:07:43.155Z,16.13
2018-02-06T08:10:11.055Z,13.63
2018-02-06T08:12:40.079Z,12.63
2018-02-06T08:15:08.002Z,13.27
2018-02-06T08:17:35.939Z,13.37
2018-02-06T08:20:03.471Z,15.57
2018-02-06T08:22:31.005Z,13.87
2018-02-06T08:24:58.943Z,12.50
2018-02-06T08:27:26.464Z,12.20
2018-02-06T08:29:54.760Z,15.10
2018-02-06T08:32:22.675Z,12.30
2018-02-06T08:34:50.596Z,14.33
2018-02-06T08:37:18.544Z,12.83
2018-02-06T08:39:46.843Z,13.43
2018-02-06T08:42:14.758Z,15.40
2018-02-06T08:44:43.441Z,14.13
2018-02-06T08:47:10.955Z,12.93
2018-02-06T08:49:39.998Z,13.27
2018-02-06T08:52:07.515Z,12.70
2018-02-06T08:54:35.014Z,13.70
2018-02-06T08:57:02.535Z,11.77
2018-02-06T08:59:30.057Z,11.40
2018-02-06T09:01:58.371Z,10.57
2018-02-06T09:04:27.254Z,12.17
2018-02-06T09:06:55.163Z,12.43
2018-02-06T09:09:23.818Z,12.93
2018-02-06T09:11:51.816Z,12.07
2018-02-06T09:14:19.723Z,12.40
2018-02-06T09:16:48.014Z,11.83
2018-02-06T09:19:15.655Z,12.23
2018-02-06T09:21:43.585Z,13.57
2018-02-06T09:24:11.589Z,12.70
2018-02-06T09:26:39.123Z,13.07
2018-02-06T09:29:07.024Z,11.57
2018-02-06T09:31:34.576Z,11.90
2018-02-06T09:34:02.490Z,11.87
2018-02-06T09:36:30.790Z,11.27
2018-02-06T09:38:59.120Z,11.70
2018-02-06T09:41:26.663Z,11.13
2018-02-06T09:43:54.178Z,11.77
2018-02-06T09:46:21.698Z,12.03
2018-02-06T09:48:49.239Z,11.27
2018-02-06T09:51:16.754Z,10.87
2018-02-06T09:53:44.282Z,14.10
2018-02-06T09:56:11.798Z,10.83
2018-02-06T09:58:39.725Z,11.90
2018-02-06T10:01:07.231Z,11.60
2018-02-06T10:03:34.786Z,10.47
2018-02-06T10:06:02.345Z,9.73
2018-02-06T10:08:29.875Z,10.47
2018-02-06T10:10:57.371Z,10.63
2018-02-06T10:13:25.298Z,10.33
2018-02-06T10:15:53.562Z,10.60
2018-02-06T10:18:21.512Z,10.07
2018-02-06T10:20:49.406Z,11.50
2018-02-06T10:23:17.448Z,9.90
2018-02-06T10:25:45.358Z,9.43
2018-02-06T10:28:12.988Z,11.03
2018-02-06T10:30:40.502Z,9.83
2018-02-06T10:33:08.006Z,9.77
2018-02-06T10:35:35.527Z,8.90
2018-02-06T10:38:03.026Z,9.73
2018-02-06T10:40:30.634Z,10.03
2018-02-06T10:42:58.535Z,9.90
2018-02-06T10:45:26.063Z,8.77
2018-02-06T10:47:53.562Z,9.23
2018-02-06T10:50:21.128Z,8.73
2018-02-06T10:52:49.026Z,9.03
2018-02-06T10:55:16.563Z,9.63
2018-02-06T10:57:44.466Z,8.83
2018-02-06T11:00:12.932Z,7.80
2018-02-06T11:02:40.467Z,7.90
2018-02-06T11:05:08.788Z,8.20
2018-02-06T11:07:36.354Z,8.93
2018-02-06T11:10:04.299Z,8.23
2018-02-06T11:12:31.838Z,8.17
2018-02-06T11:14:59.345Z,7.17
2018-02-06T11:17:27.674Z,7.27
2018-02-06T11:19:55.587Z,10.20
2018-02-06T11:22:23.119Z,7.93
2018-02-06T11:24:51.010Z,8.50
2018-02-06T11:27:18.533Z,9.10
2018-02-06T11:29:46.046Z,8.20
2018-02-06T11:32:14.000Z,8.27
2018-02-06T11:34:41.507Z,9.27
2018-02-06T11:37:09.018Z,8.33
2018-02-06T11:39:36.911Z,8.53
2018-02-06T11:42:04.828Z,8.20
2018-02-06T11:44:32.372Z,7.40
2018-02-06T11:46:59.912Z,8.83
2018-02-06T11:49:27.811Z,8.27
2018-02-06T11:51:55.708Z,8.27
2018-02-06T11:54:23.235Z,8.93
2018-02-06T11:56:51.509Z,9.23
2018-02-06T11:59:20.168Z,7.70
2018-02-06T12:01:47.678Z,7.30
2018-02-06T12:04:15.210Z,7.20
2018-02-06T12:06:43.106Z,7.50
2018-02-06T12:09:11.014Z,7.37
2018-02-06T12:11:38.518Z,5.87
2018-02-06T12:14:06.045Z,7.63
2018-02-06T12:16:33.944Z,6.80
2018-02-06T12:19:01.857Z,6.87
2018-02-06T12:21:29.359Z,9.00
2018-02-06T12:23:57.281Z,6.40
2018-02-06T12:26:25.173Z,7.47
2018-02-06T12:28:53.092Z,7.43
2018-02-06T12:31:20.586Z,6.97
2018-02-06T12:33:48.507Z,6.93
2018-02-06T12:36:16.422Z,7.60
2018-02-06T12:38:43.982Z,7.87
2018-02-06T12:41:11.478Z,8.07
2018-02-06T12:43:38.985Z,7.83
2018-02-06T12:46:06.898Z,7.80
2018-02-06T12:48:34.394Z,8.10
2018-02-06T12:51:02.318Z,7.00
2018-02-06T12:53:30.598Z,7.73
2018-02-06T12:55:58.132Z,7.33
2018-02-06T12:58:26.028Z,7.50
2018-02-06T13:00:53.968Z,7.30
2018-02-06T13:03:21.881Z,8.73
2018-02-06T13:05:49.806Z,7.70
2018-02-06T13:08:17.309Z,8.27
2018-02-06T13:10:44.841Z,7.13
2018-02-06T13:13:12.336Z,7.40
2018-02-06T13:15:40.238Z,6.83
2018-02-06T13:18:07.734Z,7.30
2018-02-06T13:20:35.623Z,6.80
2018-02-06T13:23:03.150Z,7.03
2018-02-06T13:25:31.050Z,7.33
2018-02-06T13:27:59.270Z,7.07
2018-02-06T13:30:26.758Z,6.10
2018-02-06T13:32:54.670Z,6.83
2018-02-06T13:35:22.606Z,6.60
2018-02-06T13:37:50.159Z,6.73
2018-02-06T13:40:17.671Z,8.13
2018-02-06T13:42:45.960Z,7.20
2018-02-06T13:45:13.452Z,7.77
2018-02-06T13:47:41.000Z,7.40
2018-02-06T13:50:08.490Z,7.10
2018-02-06T13:52:36.024Z,6.93
2018-02-06T13:55:03.540Z,7.03
2018-02-06T13:57:34.379Z,6.90
2018-02-06T14:00:03.381Z,8.90
2018-02-06T14:02:31.682Z,8.37
2018-02-06T14:04:59.210Z,6.60
2018-02-06T14:07:26.779Z,6.93
2018-02-06T14:09:54.680Z,6.50
2018-02-06T14:12:22.571Z,7.43
2018-02-06T14:14:50.862Z,8.17
2018-02-06T14:17:18.752Z,7.03
2018-02-06T14:19:46.311Z,7.57
2018-02-06T14:22:13.831Z,6.73
2018-02-06T14:24:41.770Z,7.47
2018-02-06T14:27:09.662Z,6.77
2018-02-06T14:29:37.652Z,7.33
2018-02-06T14:32:05.170Z,6.77
2018-02-06T14:34:33.450Z,6.40
2018-02-06T14:37:01.860Z,6.67
2018-02-06T14:39:29.757Z,6.80
2018-02-06T14:41:57.251Z,7.87
2018-02-06T14:44:24.773Z,6.53
2018-02-06T14:46:52.265Z,7.10
2018-02-06T14:49:19.936Z,7.23
2018-02-06T14:51:47.441Z,6.37
2018-02-06T14:54:15.001Z,7.23
2018-02-06T14:56:42.882Z,8.23
2018-02-06T14:59:10.384Z,6.20
2018-02-06T15:01:37.952Z,8.20
2018-02-06T15:04:05.878Z,7.10
2018-02-06T15:06:33.394Z,6.83
2018-02-06T15:09:01.295Z,6.10
2018-02-06T15:11:29.215Z,6.60
2018-02-06T15:13:57.116Z,7.30
2018-02-06T15:16:24.644Z,7.83
2018-02-06T15:18:52.149Z,7.60
2018-02-06T15:21:20.066Z,6.87
2018-02-06T15:23:49.066Z,8.00
2018-02-06T15:26:16.979Z,7.00
2018-02-06T15:28:44.874Z,6.87
2018-02-06T15:31:12.386Z,7.40
2018-02-06T15:33:39.890Z,7.23
2018-02-06T15:36:07.818Z,8.27
2018-02-06T15:38:35.319Z,8.37
2018-02-06T15:41:02.846Z,9.53
2018-02-06T15:43:30.887Z,7.93
2018-02-06T15:45:58.412Z,9.90
2018-02-06T15:48:26.312Z,8.13
2018-02-06T15:50:54.210Z,8.43
2018-02-06T15:53:21.735Z,8.77
2018-02-06T15:55:49.234Z,8.00
2018-02-06T15:58:17.155Z,10.23
2018-02-06T16:00:50.282Z,9.70
2018-02-06T16:03:17.803Z,10.27
2018-02-06T16:05:45.699Z,8.83
2018-02-06T16:08:13.222Z,10.20
2018-02-06T16:10:40.726Z,8.07
2018-02-06T16:13:08.650Z,8.93
2018-02-06T16:15:36.150Z,10.67
2018-02-06T16:18:03.671Z,9.60
2018-02-06T16:20:31.170Z,10.13
2018-02-06T16:22:59.098Z,10.27
2018-02-06T16:25:26.994Z,9.73
2018-02-06T16:27:54.910Z,11.13
2018-02-06T16:30:22.942Z,8.37
2018-02-06T16:32:50.517Z,10.60
2018-02-06T16:35:18.375Z,9.83
2018-02-06T16:37:45.925Z,11.77
2018-02-06T16:40:13.425Z,9.37
2018-02-06T16:42:41.759Z,10.33
2018-02-06T16:45:09.667Z,9.27
2018-02-06T16:47:37.182Z,10.77
2018-02-06T16:50:04.711Z,9.43
2018-02-06T16:52:33.646Z,9.20
2018-02-06T16:55:01.574Z,10.30
2018-02-06T16:57:29.090Z,9.43
2018-02-06T16:59:56.632Z,11.20
2018-02-06T17:02:36.062Z,9.70
2018-02-06T17:05:04.021Z,10.80
2018-02-06T17:07:31.526Z,10.07
2018-02-06T17:09:59.056Z,11.40
2018-02-06T17:12:26.570Z,11.23
2018-02-06T17:14:54.902Z,9.73
2018-02-06T17:17:22.410Z,10.67
2018-02-06T17:19:49.989Z,8.97
2018-02-06T17:22:17.503Z,9.50
2018-02-06T17:24:45.031Z,12.57
2018-02-06T17:27:13.695Z,9.43
2018-02-06T17:29:41.234Z,12.03
2018-02-06T17:32:09.511Z,9.37
2018-02-06T17:34:37.097Z,12.50
2018-02-06T17:37:05.366Z,11.37
2018-02-06T17:39:33.300Z,12.60
2018-02-06T17:42:01.205Z,8.63
2018-02-06T17:44:29.119Z,8.60
2018-02-06T17:46:57.012Z,8.43
2018-02-06T17:49:24.538Z,10.33
2018-02-06T17:51:52.470Z,8.90
2018-02-06T17:54:20.370Z,11.20
2018-02-06T17:56:48.305Z,10.43
2018-02-06T17:59:15.864Z,10.70
2018-02-06T18:01:43.774Z,8.33
2018-02-06T18:04:12.796Z,11.23
2018-02-06T18:06:41.725Z,10.10
2018-02-06T18:09:09.631Z,11.57
2018-02-06T18:11:37.546Z,11.07
2018-02-06T18:14:05.486Z,9.93
2018-02-06T18:16:33.424Z,10.23
2018-02-06T18:19:02.446Z,10.23
2018-02-06T18:21:30.367Z,11.50
2018-02-06T18:23:57.884Z,10.57
2018-02-06T18:26:26.186Z,9.40
2018-02-06T18:28:53.698Z,10.80
2018-02-06T18:31:21.248Z,9.70
2018-02-06T18:33:48.811Z,12.73
2018-02-06T18:36:16.729Z,10.60
2018-02-06T18:38:44.649Z,11.17
2018-02-06T18:41:12.927Z,10.77
2018-02-06T18:43:40.451Z,10.47
2018-02-06T18:46:07.966Z,12.43
2018-02-06T18:48:35.519Z,10.57
2018-02-06T18:51:03.025Z,10.97
2018-02-06T18:53:30.989Z,10.97
2018-02-06T18:55:58.882Z,12.10
2018-02-06T18:58:26.814Z,10.03
2018-02-06T19:00:54.365Z,10.97
2018-02-06T19:03:22.291Z,13.70
2018-02-06T19:05:49.819Z,14.57
2018-02-06T19:08:17.358Z,10.70
2018-02-06T19:10:44.868Z,11.33
2018-02-06T19:13:12.792Z,11.27
2018-02-06T19:15:40.964Z,13.87
2018-02-06T19:18:08.549Z,9.57
2018-02-06T19:20:37.522Z,10.00
2018-02-06T19:23:05.446Z,10.03
2018-02-06T19:25:33.016Z,12.83
2018-02-06T19:28:01.957Z,10.63
2018-02-06T19:30:29.464Z,11.00
2018-02-06T19:32:56.994Z,11.63
2018-02-06T19:35:24.929Z,11.00
2018-02-06T19:37:52.907Z,10.13
2018-02-06T19:40:20.865Z,8.27
2018-02-06T19:42:48.766Z,9.97
2018-02-06T19:45:16.295Z,9.97
2018-02-06T19:47:43.847Z,9.77
2018-02-06T19:50:11.384Z,10.33
2018-02-06T19:52:38.891Z,9.13
2018-02-06T19:55:06.830Z,10.30
2018-02-06T19:57:34.754Z,9.77
2018-02-06T20:00:02.286Z,8.53
2018-02-06T20:02:30.228Z,9.80
2018-02-06T20:04:57.801Z,10.00
2018-02-06T20:07:25.703Z,12.80
2018-02-06T20:09:53.282Z,9.17
2018-02-06T20:12:20.811Z,11.93
2018-02-06T20:14:48.770Z,11.07
2018-02-06T20:17:16.295Z,11.93
2018-02-06T20:19:44.230Z,9.53
2018-02-06T20:22:11.846Z,10.87
2018-02-06T20:24:40.236Z,10.43
2018-02-06T20:27:08.207Z,10.70
2018-02-06T20:29:36.494Z,14.33
2018-02-06T20:32:04.849Z,8.77
2018-02-06T20:34:32.357Z,11.20
2018-02-06T20:37:00.334Z,9.63
2018-02-06T20:39:28.674Z,10.67
2018-02-06T20:41:57.553Z,10.60
2018-02-06T20:44:25.079Z,11.97
2018-02-06T20:46:52.619Z,10.67
2018-02-06T20:49:20.942Z,13.50
2018-02-06T20:51:48.474Z,12.93
2018-02-06T20:54:16.158Z,9.90
2018-02-06T20:56:43.699Z,12.00
2018-02-06T20:59:11.640Z,8.10
2018-02-06T21:01:39.402Z,12.63
2018-02-06T21:04:06.903Z,10.57
2018-02-06T21:06:34.414Z,11.50
2018-02-06T21:09:02.698Z,11.90
2018-02-06T21:11:30.656Z,10.90
2018-02-06T21:13:58.201Z,10.83
2018-02-06T21:16:25.729Z,11.23
2018-02-06T21:18:53.700Z,12.43
2018-02-06T21:21:21.593Z,11.13
2018-02-06T21:23:49.577Z,11.13
2018-02-06T21:26:17.149Z,11.37
2018-02-06T21:28:45.157Z,10.80
2018-02-06T21:31:12.708Z,11.43
2018-02-06T21:33:40.277Z,9.97
2018-02-06T21:36:07.786Z,9.90
2018-02-06T21:38:36.079Z,13.27
2018-02-06T21:41:03.594Z,11.03
2018-02-06T21:43:31.116Z,14.83
2018-02-06T21:45:58.620Z,11.20
2018-02-06T21:48:26.144Z,10.80
2018-02-06T21:50:53.794Z,10.80
2018-02-06T21:53:21.411Z,12.60
2018-02-06T21:55:48.918Z,9.73
2018-02-06T21:58:16.855Z,11.53
2018-02-06T22:00:45.577Z,10.00
2018-02-06T22:03:13.162Z,13.30
2018-02-06T22:05:40.766Z,10.43
2018-02-06T22:08:08.282Z,11.70
2018-02-06T22:10:35.827Z,12.30
2018-02-06T22:13:03.343Z,11.63
2018-02-06T22:15:30.870Z,14.17
2018-02-06T22:17:58.810Z,8.73
2018-02-06T22:20:26.338Z,13.50
2018-02-06T22:22:54.606Z,10.77
2018-02-06T22:25:22.130Z,12.30
2018-02-06T22:27:50.035Z,12.10
2018-02-06T22:30:17.566Z,12.50
2018-02-06T22:32:45.071Z,10.23
2018-02-06T22:35:12.602Z,10.57
2018-02-06T22:37:40.548Z,9.93
2018-02-06T22:40:08.075Z,10.20
2018-02-06T22:42:36.071Z,11.37
2018-02-06T22:45:04.041Z,10.73
2018-02-06T22:47:31.555Z,10.50
2018-02-06T22:49:59.076Z,10.40
2018-02-06T22:52:26.614Z,10.40
2018-02-06T22:54:54.515Z,11.50
2018-02-06T22:57:22.038Z,9.80
2018-02-06T22:59:50.088Z,11.13
2018-02-06T23:02:18.006Z,10.47
2018-02-06T23:04:45.510Z,12.27
2018-02-06T23:07:13.806Z,9.53
2018-02-06T23:09:41.707Z,12.13
2018-02-06T23:12:09.627Z,10.80
2018-02-06T23:14:37.139Z,9.80
2018-02-06T23:17:05.054Z,12.17
2018-02-06T23:19:32.563Z,10.90
2018-02-06T23:22:00.664Z,10.30
2018-02-06T23:24:28.166Z,12.00
2018-02-06T23:26:55.714Z,10.73
2018-02-06T23:29:23.619Z,12.17
2018-02-06T23:31:51.537Z,9.70
2018-02-06T23:34:19.059Z,11.73
2018-02-06T23:36:46.606Z,9.63
2018-02-06T23:39:14.268Z,8.93
2018-02-06T23:41:41.765Z,9.53
2018-02-06T23:44:10.046Z,9.93
2018-02-06T23:46:37.638Z,10.07
2018-02-06T23:49:05.562Z,10.10
2018-02-06T23:51:33.060Z,9.77
2018-02-06T23:54:00.985Z,13.13
2018-02-06T23:56:28.693Z,10.43
2018-02-06T23:58:56.990Z,11.23
